sensor_id;sensor_type;location;lat;lon;timestamp;temperature;humidity
11577;DHT22;5844;51.496;6.788;2023-12-20T00:01:04;8.50;3.90
11577;DHT22;5844;51.496;6.788;2023-12-20T00:03:29;8.40;5.20
11577;DHT22;5844;51.496;6.788;2023-12-20T00:05:56;8.40;6.10
11577;DHT22;5844;51.496;6.788;2023-12-20T00:08:21;8.30;6.20
11577;DHT22;5844;51.496;6.788;2023-12-20T00:10:47;8.30;6.00
11577;DHT22;5844;51.496;6.788;2023-12-20T00:13:13;8.30;3.80
11577;DHT22;5844;51.496;6.788;2023-12-20T00:15:38;8.30;3.40
11577;DHT22;5844;51.496;6.788;2023-12-20T00:18:04;8.30;4.20
11577;DHT22;5844;51.496;6.788;2023-12-20T00:20:30;8.20;3.10
11577;DHT22;5844;51.496;6.788;2023-12-20T00:22:56;8.30;1.00
11577;DHT22;5844;51.496;6.788;2023-12-20T00:25:23;8.20;2.50
11577;DHT22;5844;51.496;6.788;2023-12-20T00:27:49;8.10;4.00
11577;DHT22;5844;51.496;6.788;2023-12-20T00:30:14;8.10;3.60
11577;DHT22;5844;51.496;6.788;2023-12-20T00:32:40;8.10;1.90
11577;DHT22;5844;51.496;6.788;2023-12-20T00:35:12;8.20;3.60
11577;DHT22;5844;51.496;6.788;2023-12-20T00:37:37;8.20;1.20
11577;DHT22;5844;51.496;6.788;2023-12-20T00:40:03;8.20;1.00
11577;DHT22;5844;51.496;6.788;2023-12-20T00:42:29;8.20;1.00
11577;DHT22;5844;51.496;6.788;2023-12-20T00:44:55;8.20;1.00
11577;DHT22;5844;51.496;6.788;2023-12-20T00:47:21;8.20;1.00
11577;DHT22;5844;51.496;6.788;2023-12-20T00:49:47;8.20;1.00
11577;DHT22;5844;51.496;6.788;2023-12-20T00:52:13;8.30;1.00
11577;DHT22;5844;51.496;6.788;2023-12-20T00:54:38;8.30;1.00
11577;DHT22;5844;51.496;6.788;2023-12-20T00:57:04;8.20;1.00
11577;DHT22;5844;51.496;6.788;2023-12-20T00:59:30;8.20;1.00
11577;DHT22;5844;51.496;6.788;2023-12-20T01:01:56;8.10;1.00
11577;DHT22;5844;51.496;6.788;2023-12-20T01:04:21;8.10;1.00
11577;DHT22;5844;51.496;6.788;2023-12-20T01:06:47;8.20;1.00
11577;DHT22;5844;51.496;6.788;2023-12-20T01:09:12;8.10;4.00
11577;DHT22;5844;51.496;6.788;2023-12-20T01:11:38;8.10;1.00
11577;DHT22;5844;51.496;6.788;2023-12-20T01:14:03;8.10;1.00
11577;DHT22;5844;51.496;6.788;2023-12-20T01:16:29;8.10;1.00
11577;DHT22;5844;51.496;6.788;2023-12-20T01:18:55;8.10;1.00
11577;DHT22;5844;51.496;6.788;2023-12-20T01:21:20;8.00;1.00
11577;DHT22;5844;51.496;6.788;2023-12-20T01:23:46;8.10;1.00
11577;DHT22;5844;51.496;6.788;2023-12-20T01:26:12;8.10;1.00
11577;DHT22;5844;51.496;6.788;2023-12-20T01:28:38;8.10;1.00
11577;DHT22;5844;51.496;6.788;2023-12-20T01:31:04;8.30;1.00
11577;DHT22;5844;51.496;6.788;2023-12-20T01:33:29;8.10;1.00
11577;DHT22;5844;51.496;6.788;2023-12-20T01:35:55;8.10;1.00
11577;DHT22;5844;51.496;6.788;2023-12-20T01:38:20;8.10;1.00
11577;DHT22;5844;51.496;6.788;2023-12-20T01:40:46;8.00;1.00
11577;DHT22;5844;51.496;6.788;2023-12-20T01:43:13;7.90;1.00
11577;DHT22;5844;51.496;6.788;2023-12-20T01:45:40;7.80;1.00
11577;DHT22;5844;51.496;6.788;2023-12-20T01:48:06;7.80;1.00
11577;DHT22;5844;51.496;6.788;2023-12-20T01:50:36;7.70;1.00
11577;DHT22;5844;51.496;6.788;2023-12-20T01:53:02;7.60;1.00
11577;DHT22;5844;51.496;6.788;2023-12-20T01:55:31;7.60;1.00
11577;DHT22;5844;51.496;6.788;2023-12-20T01:57:59;7.60;1.00
11577;DHT22;5844;51.496;6.788;2023-12-20T02:00:26;7.60;1.00
11577;DHT22;5844;51.496;6.788;2023-12-20T02:02:53;7.50;1.00
11577;DHT22;5844;51.496;6.788;2023-12-20T02:05:20;7.80;1.00
11577;DHT22;5844;51.496;6.788;2023-12-20T02:07:46;7.70;1.00
11577;DHT22;5844;51.496;6.788;2023-12-20T02:10:12;7.70;1.00
11577;DHT22;5844;51.496;6.788;2023-12-20T02:12:38;7.60;1.00
11577;DHT22;5844;51.496;6.788;2023-12-20T02:15:04;7.50;1.00
11577;DHT22;5844;51.496;6.788;2023-12-20T02:17:31;7.50;1.00
11577;DHT22;5844;51.496;6.788;2023-12-20T02:19:57;7.50;1.00
11577;DHT22;5844;51.496;6.788;2023-12-20T02:22:23;7.50;1.00
11577;DHT22;5844;51.496;6.788;2023-12-20T02:24:48;7.60;1.00
11577;DHT22;5844;51.496;6.788;2023-12-20T02:27:15;7.60;1.00
11577;DHT22;5844;51.496;6.788;2023-12-20T02:29:43;7.50;1.00
11577;DHT22;5844;51.496;6.788;2023-12-20T02:32:08;7.50;1.00
11577;DHT22;5844;51.496;6.788;2023-12-20T02:34:34;7.90;1.00
11577;DHT22;5844;51.496;6.788;2023-12-20T02:37:00;7.40;1.00
11577;DHT22;5844;51.496;6.788;2023-12-20T02:39:25;7.30;1.00
11577;DHT22;5844;51.496;6.788;2023-12-20T02:41:51;7.30;1.00
11577;DHT22;5844;51.496;6.788;2023-12-20T02:44:16;7.40;1.00
11577;DHT22;5844;51.496;6.788;2023-12-20T02:46:42;7.10;1.00
11577;DHT22;5844;51.496;6.788;2023-12-20T02:49:08;7.20;1.00
11577;DHT22;5844;51.496;6.788;2023-12-20T02:51:33;7.10;1.00
11577;DHT22;5844;51.496;6.788;2023-12-20T02:56:34;7.00;1.00
11577;DHT22;5844;51.496;6.788;2023-12-20T02:59:00;7.00;1.00
11577;DHT22;5844;51.496;6.788;2023-12-20T03:01:27;6.90;1.00
11577;DHT22;5844;51.496;6.788;2023-12-20T03:03:52;7.00;1.00
11577;DHT22;5844;51.496;6.788;2023-12-20T03:06:18;6.90;1.00
11577;DHT22;5844;51.496;6.788;2023-12-20T03:08:44;6.90;1.00
11577;DHT22;5844;51.496;6.788;2023-12-20T03:11:10;6.90;1.00
11577;DHT22;5844;51.496;6.788;2023-12-20T03:13:35;7.20;1.00
11577;DHT22;5844;51.496;6.788;2023-12-20T03:16:01;6.90;1.00
11577;DHT22;5844;51.496;6.788;2023-12-20T03:18:26;6.90;1.00
11577;DHT22;5844;51.496;6.788;2023-12-20T03:20:54;6.90;1.00
11577;DHT22;5844;51.496;6.788;2023-12-20T03:23:20;6.90;1.00
11577;DHT22;5844;51.496;6.788;2023-12-20T03:25:46;6.80;1.00
11577;DHT22;5844;51.496;6.788;2023-12-20T03:28:14;6.70;1.00
11577;DHT22;5844;51.496;6.788;2023-12-20T03:30:40;6.60;1.00
11577;DHT22;5844;51.496;6.788;2023-12-20T03:33:06;6.70;1.00
11577;DHT22;5844;51.496;6.788;2023-12-20T03:35:33;6.70;1.00
11577;DHT22;5844;51.496;6.788;2023-12-20T03:37:58;6.70;1.00
11577;DHT22;5844;51.496;6.788;2023-12-20T03:40:25;6.80;1.00
11577;DHT22;5844;51.496;6.788;2023-12-20T03:42:51;6.60;1.00
11577;DHT22;5844;51.496;6.788;2023-12-20T03:45:17;6.60;1.00
11577;DHT22;5844;51.496;6.788;2023-12-20T03:47:42;6.50;1.00
11577;DHT22;5844;51.496;6.788;2023-12-20T03:50:08;6.50;1.00
11577;DHT22;5844;51.496;6.788;2023-12-20T03:52:33;6.50;1.00
11577;DHT22;5844;51.496;6.788;2023-12-20T03:54:59;6.50;1.00
11577;DHT22;5844;51.496;6.788;2023-12-20T03:57:25;6.50;1.00
11577;DHT22;5844;51.496;6.788;2023-12-20T03:59:50;6.50;1.00
11577;DHT22;5844;51.496;6.788;2023-12-20T04:02:16;6.50;1.00
11577;DHT22;5844;51.496;6.788;2023-12-20T04:04:43;6.50;1.00
11577;DHT22;5844;51.496;6.788;2023-12-20T04:07:09;6.60;1.00
11577;DHT22;5844;51.496;6.788;2023-12-20T04:09:34;6.60;1.00
11577;DHT22;5844;51.496;6.788;2023-12-20T04:12:01;6.60;1.00
11577;DHT22;5844;51.496;6.788;2023-12-20T04:14:27;6.60;1.00
11577;DHT22;5844;51.496;6.788;2023-12-20T04:16:53;6.60;1.00
11577;DHT22;5844;51.496;6.788;2023-12-20T04:19:19;6.70;1.00
11577;DHT22;5844;51.496;6.788;2023-12-20T04:21:44;6.70;1.00
11577;DHT22;5844;51.496;6.788;2023-12-20T04:24:10;6.60;1.00
11577;DHT22;5844;51.496;6.788;2023-12-20T04:26:36;6.60;1.00
11577;DHT22;5844;51.496;6.788;2023-12-20T04:29:01;7.10;1.00
11577;DHT22;5844;51.496;6.788;2023-12-20T04:31:27;6.60;1.00
11577;DHT22;5844;51.496;6.788;2023-12-20T04:33:52;6.60;1.00
11577;DHT22;5844;51.496;6.788;2023-12-20T04:36:18;6.80;1.00
11577;DHT22;5844;51.496;6.788;2023-12-20T04:38:44;6.80;1.00
11577;DHT22;5844;51.496;6.788;2023-12-20T04:41:09;6.70;1.00
11577;DHT22;5844;51.496;6.788;2023-12-20T04:43:35;6.70;1.00
11577;DHT22;5844;51.496;6.788;2023-12-20T04:46:01;6.70;1.00
11577;DHT22;5844;51.496;6.788;2023-12-20T04:48:26;6.70;1.00
11577;DHT22;5844;51.496;6.788;2023-12-20T04:50:53;6.70;1.00
11577;DHT22;5844;51.496;6.788;2023-12-20T04:53:18;7.10;1.00
11577;DHT22;5844;51.496;6.788;2023-12-20T04:55:44;6.80;1.00
11577;DHT22;5844;51.496;6.788;2023-12-20T04:58:09;6.70;1.00
11577;DHT22;5844;51.496;6.788;2023-12-20T05:00:35;6.70;1.00
11577;DHT22;5844;51.496;6.788;2023-12-20T05:03:01;6.70;1.00
11577;DHT22;5844;51.496;6.788;2023-12-20T05:05:26;6.70;1.00
11577;DHT22;5844;51.496;6.788;2023-12-20T05:07:52;6.60;1.00
11577;DHT22;5844;51.496;6.788;2023-12-20T05:10:18;7.00;1.00
11577;DHT22;5844;51.496;6.788;2023-12-20T05:12:43;6.60;1.00
11577;DHT22;5844;51.496;6.788;2023-12-20T05:15:09;6.50;1.00
11577;DHT22;5844;51.496;6.788;2023-12-20T05:17:34;6.60;1.00
11577;DHT22;5844;51.496;6.788;2023-12-20T05:20:00;6.50;1.00
11577;DHT22;5844;51.496;6.788;2023-12-20T05:22:26;6.50;1.00
11577;DHT22;5844;51.496;6.788;2023-12-20T05:24:53;6.50;1.00
11577;DHT22;5844;51.496;6.788;2023-12-20T05:27:18;6.50;1.00
11577;DHT22;5844;51.496;6.788;2023-12-20T05:29:44;6.50;1.00
11577;DHT22;5844;51.496;6.788;2023-12-20T05:32:10;6.50;1.00
11577;DHT22;5844;51.496;6.788;2023-12-20T05:34:35;6.50;1.00
11577;DHT22;5844;51.496;6.788;2023-12-20T05:37:02;6.60;1.00
11577;DHT22;5844;51.496;6.788;2023-12-20T05:39:28;6.60;1.00
11577;DHT22;5844;51.496;6.788;2023-12-20T05:41:54;7.30;1.00
11577;DHT22;5844;51.496;6.788;2023-12-20T05:44:19;7.00;1.00
11577;DHT22;5844;51.496;6.788;2023-12-20T05:46:45;6.60;1.00
11577;DHT22;5844;51.496;6.788;2023-12-20T05:49:10;6.60;1.00
11577;DHT22;5844;51.496;6.788;2023-12-20T05:51:36;6.60;1.00
11577;DHT22;5844;51.496;6.788;2023-12-20T05:54:02;6.50;1.00
11577;DHT22;5844;51.496;6.788;2023-12-20T05:56:27;6.60;1.00
11577;DHT22;5844;51.496;6.788;2023-12-20T05:58:53;6.80;1.00
11577;DHT22;5844;51.496;6.788;2023-12-20T06:01:19;6.60;1.00
11577;DHT22;5844;51.496;6.788;2023-12-20T06:03:44;6.60;1.00
11577;DHT22;5844;51.496;6.788;2023-12-20T06:06:12;6.60;1.00
11577;DHT22;5844;51.496;6.788;2023-12-20T06:08:40;6.70;1.00
11577;DHT22;5844;51.496;6.788;2023-12-20T06:11:06;6.70;1.00
11577;DHT22;5844;51.496;6.788;2023-12-20T06:13:32;6.80;1.00
11577;DHT22;5844;51.496;6.788;2023-12-20T06:15:57;6.80;1.00
11577;DHT22;5844;51.496;6.788;2023-12-20T06:18:23;6.80;1.00
11577;DHT22;5844;51.496;6.788;2023-12-20T06:20:50;6.70;1.00
11577;DHT22;5844;51.496;6.788;2023-12-20T06:23:15;6.70;1.00
11577;DHT22;5844;51.496;6.788;2023-12-20T06:25:41;6.70;1.00
11577;DHT22;5844;51.496;6.788;2023-12-20T06:28:07;6.70;1.00
11577;DHT22;5844;51.496;6.788;2023-12-20T06:30:33;6.80;1.00
11577;DHT22;5844;51.496;6.788;2023-12-20T06:32:59;6.80;1.00
11577;DHT22;5844;51.496;6.788;2023-12-20T06:35:25;6.80;1.00
11577;DHT22;5844;51.496;6.788;2023-12-20T06:37:50;6.80;1.00
11577;DHT22;5844;51.496;6.788;2023-12-20T06:40:16;6.80;1.00
11577;DHT22;5844;51.496;6.788;2023-12-20T06:42:42;6.90;1.00
11577;DHT22;5844;51.496;6.788;2023-12-20T06:45:08;6.90;1.00
11577;DHT22;5844;51.496;6.788;2023-12-20T06:47:34;6.90;1.00
11577;DHT22;5844;51.496;6.788;2023-12-20T06:50:00;6.90;1.00
11577;DHT22;5844;51.496;6.788;2023-12-20T06:52:26;6.90;1.00
11577;DHT22;5844;51.496;6.788;2023-12-20T06:54:51;6.90;1.00
11577;DHT22;5844;51.496;6.788;2023-12-20T06:57:17;7.00;1.00
11577;DHT22;5844;51.496;6.788;2023-12-20T06:59:43;7.10;1.00
11577;DHT22;5844;51.496;6.788;2023-12-20T07:02:09;7.00;1.00
11577;DHT22;5844;51.496;6.788;2023-12-20T07:04:39;7.00;1.00
11577;DHT22;5844;51.496;6.788;2023-12-20T07:07:05;7.20;1.00
11577;DHT22;5844;51.496;6.788;2023-12-20T07:09:32;7.10;1.00
11577;DHT22;5844;51.496;6.788;2023-12-20T07:11:58;7.10;1.00
11577;DHT22;5844;51.496;6.788;2023-12-20T07:14:24;7.10;1.00
11577;DHT22;5844;51.496;6.788;2023-12-20T07:16:49;7.10;1.00
11577;DHT22;5844;51.496;6.788;2023-12-20T07:19:15;7.20;1.00
11577;DHT22;5844;51.496;6.788;2023-12-20T07:21:41;7.20;1.00
11577;DHT22;5844;51.496;6.788;2023-12-20T07:24:06;7.20;1.00
11577;DHT22;5844;51.496;6.788;2023-12-20T07:26:32;7.20;1.00
11577;DHT22;5844;51.496;6.788;2023-12-20T07:28:59;7.20;1.00
11577;DHT22;5844;51.496;6.788;2023-12-20T07:31:24;7.20;1.00
11577;DHT22;5844;51.496;6.788;2023-12-20T07:33:50;7.20;1.00
11577;DHT22;5844;51.496;6.788;2023-12-20T07:36:16;7.30;1.00
11577;DHT22;5844;51.496;6.788;2023-12-20T07:38:41;7.30;1.00
11577;DHT22;5844;51.496;6.788;2023-12-20T07:41:10;7.30;1.00
11577;DHT22;5844;51.496;6.788;2023-12-20T07:43:36;7.40;1.00
11577;DHT22;5844;51.496;6.788;2023-12-20T07:46:08;7.30;1.00
11577;DHT22;5844;51.496;6.788;2023-12-20T07:48:37;7.50;1.00
11577;DHT22;5844;51.496;6.788;2023-12-20T07:51:04;7.40;1.00
11577;DHT22;5844;51.496;6.788;2023-12-20T07:53:29;7.40;1.00
11577;DHT22;5844;51.496;6.788;2023-12-20T07:55:55;7.40;1.00
11577;DHT22;5844;51.496;6.788;2023-12-20T07:58:21;7.40;1.00
11577;DHT22;5844;51.496;6.788;2023-12-20T08:00:47;7.40;1.00
11577;DHT22;5844;51.496;6.788;2023-12-20T08:03:13;7.40;1.00
11577;DHT22;5844;51.496;6.788;2023-12-20T08:05:38;7.40;1.00
11577;DHT22;5844;51.496;6.788;2023-12-20T08:08:07;7.50;1.00
11577;DHT22;5844;51.496;6.788;2023-12-20T08:10:33;7.50;1.00
11577;DHT22;5844;51.496;6.788;2023-12-20T08:12:58;7.50;1.00
11577;DHT22;5844;51.496;6.788;2023-12-20T08:15:24;7.50;1.00
11577;DHT22;5844;51.496;6.788;2023-12-20T08:17:50;7.50;1.00
11577;DHT22;5844;51.496;6.788;2023-12-20T08:20:16;7.50;1.00
11577;DHT22;5844;51.496;6.788;2023-12-20T08:22:42;7.50;1.00
11577;DHT22;5844;51.496;6.788;2023-12-20T08:25:08;7.50;1.00
11577;DHT22;5844;51.496;6.788;2023-12-20T08:27:43;7.50;1.00
11577;DHT22;5844;51.496;6.788;2023-12-20T08:30:09;7.50;1.00
11577;DHT22;5844;51.496;6.788;2023-12-20T08:32:35;7.60;1.00
11577;DHT22;5844;51.496;6.788;2023-12-20T08:35:01;7.60;1.00
11577;DHT22;5844;51.496;6.788;2023-12-20T08:37:27;7.50;1.00
11577;DHT22;5844;51.496;6.788;2023-12-20T08:39:52;7.60;1.00
11577;DHT22;5844;51.496;6.788;2023-12-20T08:42:19;7.60;1.00
11577;DHT22;5844;51.496;6.788;2023-12-20T08:44:45;7.60;1.00
11577;DHT22;5844;51.496;6.788;2023-12-20T08:47:10;7.60;1.00
11577;DHT22;5844;51.496;6.788;2023-12-20T08:49:38;7.70;1.00
11577;DHT22;5844;51.496;6.788;2023-12-20T08:52:05;7.70;1.00
11577;DHT22;5844;51.496;6.788;2023-12-20T08:54:30;7.70;1.00
11577;DHT22;5844;51.496;6.788;2023-12-20T08:56:56;7.70;1.00
11577;DHT22;5844;51.496;6.788;2023-12-20T08:59:22;7.70;1.00
11577;DHT22;5844;51.496;6.788;2023-12-20T09:01:47;7.70;1.00
11577;DHT22;5844;51.496;6.788;2023-12-20T09:04:13;7.70;1.00
11577;DHT22;5844;51.496;6.788;2023-12-20T09:06:39;7.80;1.00
11577;DHT22;5844;51.496;6.788;2023-12-20T09:09:05;7.80;1.00
11577;DHT22;5844;51.496;6.788;2023-12-20T09:11:31;7.70;1.00
11577;DHT22;5844;51.496;6.788;2023-12-20T09:13:57;7.70;1.00
11577;DHT22;5844;51.496;6.788;2023-12-20T09:16:22;7.70;1.00
11577;DHT22;5844;51.496;6.788;2023-12-20T09:18:48;7.70;1.00
11577;DHT22;5844;51.496;6.788;2023-12-20T09:21:14;7.60;1.00
11577;DHT22;5844;51.496;6.788;2023-12-20T09:23:39;7.60;1.00
11577;DHT22;5844;51.496;6.788;2023-12-20T09:26:06;7.60;1.00
11577;DHT22;5844;51.496;6.788;2023-12-20T09:28:32;7.60;1.00
11577;DHT22;5844;51.496;6.788;2023-12-20T09:31:03;7.60;1.00
11577;DHT22;5844;51.496;6.788;2023-12-20T09:33:28;7.60;1.00
11577;DHT22;5844;51.496;6.788;2023-12-20T09:35:54;7.60;1.00
11577;DHT22;5844;51.496;6.788;2023-12-20T09:38:20;7.60;1.00
11577;DHT22;5844;51.496;6.788;2023-12-20T09:40:45;7.60;1.00
11577;DHT22;5844;51.496;6.788;2023-12-20T09:43:14;7.60;1.00
11577;DHT22;5844;51.496;6.788;2023-12-20T09:45:41;7.60;1.00
11577;DHT22;5844;51.496;6.788;2023-12-20T09:48:11;7.60;1.00
11577;DHT22;5844;51.496;6.788;2023-12-20T09:50:37;7.60;1.00
11577;DHT22;5844;51.496;6.788;2023-12-20T09:53:03;7.80;1.00
11577;DHT22;5844;51.496;6.788;2023-12-20T09:55:31;7.60;1.00
11577;DHT22;5844;51.496;6.788;2023-12-20T09:57:57;7.60;1.00
11577;DHT22;5844;51.496;6.788;2023-12-20T10:00:23;7.70;1.00
11577;DHT22;5844;51.496;6.788;2023-12-20T10:02:59;7.80;1.00
11577;DHT22;5844;51.496;6.788;2023-12-20T10:05:34;7.70;1.00
11577;DHT22;5844;51.496;6.788;2023-12-20T10:08:00;7.70;1.00
11577;DHT22;5844;51.496;6.788;2023-12-20T10:10:27;7.70;1.00
11577;DHT22;5844;51.496;6.788;2023-12-20T10:13:03;7.70;1.00
11577;DHT22;5844;51.496;6.788;2023-12-20T10:15:29;7.80;1.00
11577;DHT22;5844;51.496;6.788;2023-12-20T10:17:56;7.90;1.00
11577;DHT22;5844;51.496;6.788;2023-12-20T10:20:22;8.00;1.00
11577;DHT22;5844;51.496;6.788;2023-12-20T10:22:48;8.00;1.00
11577;DHT22;5844;51.496;6.788;2023-12-20T10:25:14;8.00;1.00
11577;DHT22;5844;51.496;6.788;2023-12-20T10:27:40;8.00;1.00
11577;DHT22;5844;51.496;6.788;2023-12-20T10:30:06;8.00;1.00
11577;DHT22;5844;51.496;6.788;2023-12-20T10:32:31;8.10;1.00
11577;DHT22;5844;51.496;6.788;2023-12-20T10:34:58;8.10;1.00
11577;DHT22;5844;51.496;6.788;2023-12-20T10:37:25;8.10;1.00
11577;DHT22;5844;51.496;6.788;2023-12-20T10:39:52;8.10;1.00
11577;DHT22;5844;51.496;6.788;2023-12-20T10:42:22;8.10;1.00
11577;DHT22;5844;51.496;6.788;2023-12-20T10:44:51;8.10;1.00
11577;DHT22;5844;51.496;6.788;2023-12-20T10:47:17;8.10;1.00
11577;DHT22;5844;51.496;6.788;2023-12-20T10:49:43;8.10;1.00
11577;DHT22;5844;51.496;6.788;2023-12-20T10:52:11;8.10;1.00
11577;DHT22;5844;51.496;6.788;2023-12-20T10:54:41;8.20;1.00
11577;DHT22;5844;51.496;6.788;2023-12-20T10:57:07;8.10;1.00
11577;DHT22;5844;51.496;6.788;2023-12-20T10:59:39;8.10;1.00
11577;DHT22;5844;51.496;6.788;2023-12-20T11:02:06;8.10;1.00
11577;DHT22;5844;51.496;6.788;2023-12-20T11:07:36;8.20;1.00
11577;DHT22;5844;51.496;6.788;2023-12-20T11:10:23;8.10;1.00
11577;DHT22;5844;51.496;6.788;2023-12-20T11:12:54;8.10;1.00
11577;DHT22;5844;51.496;6.788;2023-12-20T11:15:22;8.10;1.00
11577;DHT22;5844;51.496;6.788;2023-12-20T11:17:55;8.10;1.00
11577;DHT22;5844;51.496;6.788;2023-12-20T11:20:23;8.10;1.00
11577;DHT22;5844;51.496;6.788;2023-12-20T11:22:53;8.10;1.00
11577;DHT22;5844;51.496;6.788;2023-12-20T11:25:19;8.10;1.00
11577;DHT22;5844;51.496;6.788;2023-12-20T11:28:09;8.10;1.00
11577;DHT22;5844;51.496;6.788;2023-12-20T11:30:48;8.10;1.00
11577;DHT22;5844;51.496;6.788;2023-12-20T11:33:15;8.10;1.00
11577;DHT22;5844;51.496;6.788;2023-12-20T11:35:44;8.10;1.00
11577;DHT22;5844;51.496;6.788;2023-12-20T11:38:10;8.00;1.00
11577;DHT22;5844;51.496;6.788;2023-12-20T11:40:37;8.00;1.00
11577;DHT22;5844;51.496;6.788;2023-12-20T11:43:03;8.10;1.00
11577;DHT22;5844;51.496;6.788;2023-12-20T11:45:29;8.00;1.00
11577;DHT22;5844;51.496;6.788;2023-12-20T11:47:55;8.00;1.00
11577;DHT22;5844;51.496;6.788;2023-12-20T11:50:23;8.00;1.00
11577;DHT22;5844;51.496;6.788;2023-12-20T11:52:50;7.90;1.00
11577;DHT22;5844;51.496;6.788;2023-12-20T11:55:17;7.80;1.00
11577;DHT22;5844;51.496;6.788;2023-12-20T11:57:43;7.80;1.00
11577;DHT22;5844;51.496;6.788;2023-12-20T12:00:09;7.80;1.00
11577;DHT22;5844;51.496;6.788;2023-12-20T12:02:35;7.80;1.00
11577;DHT22;5844;51.496;6.788;2023-12-20T12:05:01;7.80;1.00
11577;DHT22;5844;51.496;6.788;2023-12-20T12:07:27;7.90;1.00
11577;DHT22;5844;51.496;6.788;2023-12-20T12:09:52;8.00;1.00
11577;DHT22;5844;51.496;6.788;2023-12-20T12:12:19;8.00;1.00
11577;DHT22;5844;51.496;6.788;2023-12-20T12:14:45;8.00;1.00
11577;DHT22;5844;51.496;6.788;2023-12-20T12:17:14;8.20;1.00
11577;DHT22;5844;51.496;6.788;2023-12-20T12:19:41;8.10;1.00
11577;DHT22;5844;51.496;6.788;2023-12-20T12:22:09;8.20;1.00
11577;DHT22;5844;51.496;6.788;2023-12-20T12:24:46;8.20;1.00
11577;DHT22;5844;51.496;6.788;2023-12-20T12:27:16;8.20;1.00
11577;DHT22;5844;51.496;6.788;2023-12-20T12:30:03;8.30;1.00
11577;DHT22;5844;51.496;6.788;2023-12-20T12:32:30;8.20;1.00
11577;DHT22;5844;51.496;6.788;2023-12-20T12:34:56;8.30;1.00
11577;DHT22;5844;51.496;6.788;2023-12-20T12:37:22;8.40;1.00
11577;DHT22;5844;51.496;6.788;2023-12-20T12:39:49;8.40;1.00
11577;DHT22;5844;51.496;6.788;2023-12-20T12:42:15;8.40;1.00
11577;DHT22;5844;51.496;6.788;2023-12-20T12:44:41;8.40;1.00
11577;DHT22;5844;51.496;6.788;2023-12-20T12:47:06;8.40;1.00
11577;DHT22;5844;51.496;6.788;2023-12-20T12:49:33;8.40;1.00
11577;DHT22;5844;51.496;6.788;2023-12-20T12:51:59;8.40;1.00
11577;DHT22;5844;51.496;6.788;2023-12-20T12:54:24;8.40;1.00
11577;DHT22;5844;51.496;6.788;2023-12-20T12:56:50;8.40;1.00
11577;DHT22;5844;51.496;6.788;2023-12-20T12:59:18;8.30;1.00
11577;DHT22;5844;51.496;6.788;2023-12-20T13:01:44;8.30;1.00
11577;DHT22;5844;51.496;6.788;2023-12-20T13:04:09;8.30;1.00
11577;DHT22;5844;51.496;6.788;2023-12-20T13:06:39;8.20;1.00
11577;DHT22;5844;51.496;6.788;2023-12-20T13:09:06;8.20;1.00
11577;DHT22;5844;51.496;6.788;2023-12-20T13:11:32;8.20;1.00
11577;DHT22;5844;51.496;6.788;2023-12-20T13:13:58;8.30;1.00
11577;DHT22;5844;51.496;6.788;2023-12-20T13:16:24;8.30;1.00
11577;DHT22;5844;51.496;6.788;2023-12-20T13:18:50;8.20;1.00
11577;DHT22;5844;51.496;6.788;2023-12-20T13:21:16;8.20;1.00
11577;DHT22;5844;51.496;6.788;2023-12-20T13:23:42;8.10;1.00
11577;DHT22;5844;51.496;6.788;2023-12-20T13:26:08;8.10;1.00
11577;DHT22;5844;51.496;6.788;2023-12-20T13:28:34;8.00;1.00
11577;DHT22;5844;51.496;6.788;2023-12-20T13:30:59;8.00;1.00
11577;DHT22;5844;51.496;6.788;2023-12-20T13:33:25;7.90;1.00
11577;DHT22;5844;51.496;6.788;2023-12-20T13:35:51;7.90;1.00
11577;DHT22;5844;51.496;6.788;2023-12-20T13:38:17;7.80;1.00
11577;DHT22;5844;51.496;6.788;2023-12-20T13:40:43;7.80;1.00
11577;DHT22;5844;51.496;6.788;2023-12-20T13:43:08;7.80;1.00
11577;DHT22;5844;51.496;6.788;2023-12-20T13:45:35;7.80;1.00
11577;DHT22;5844;51.496;6.788;2023-12-20T13:48:03;7.80;1.00
11577;DHT22;5844;51.496;6.788;2023-12-20T13:50:28;7.80;1.00
11577;DHT22;5844;51.496;6.788;2023-12-20T13:52:54;7.80;1.00
11577;DHT22;5844;51.496;6.788;2023-12-20T13:55:20;7.80;1.00
11577;DHT22;5844;51.496;6.788;2023-12-20T13:57:47;7.90;1.00
11577;DHT22;5844;51.496;6.788;2023-12-20T14:00:14;7.80;1.00
11577;DHT22;5844;51.496;6.788;2023-12-20T14:02:41;7.80;1.00
11577;DHT22;5844;51.496;6.788;2023-12-20T14:05:08;7.80;1.00
11577;DHT22;5844;51.496;6.788;2023-12-20T14:07:34;7.70;1.00
11577;DHT22;5844;51.496;6.788;2023-12-20T14:10:00;7.70;1.00
11577;DHT22;5844;51.496;6.788;2023-12-20T14:12:25;7.70;1.00
11577;DHT22;5844;51.496;6.788;2023-12-20T14:14:51;7.60;1.00
11577;DHT22;5844;51.496;6.788;2023-12-20T14:17:17;7.60;1.00
11577;DHT22;5844;51.496;6.788;2023-12-20T14:19:43;7.60;1.00
11577;DHT22;5844;51.496;6.788;2023-12-20T14:22:09;7.60;1.00
11577;DHT22;5844;51.496;6.788;2023-12-20T14:24:37;7.60;1.00
11577;DHT22;5844;51.496;6.788;2023-12-20T14:27:03;7.50;1.00
11577;DHT22;5844;51.496;6.788;2023-12-20T14:29:29;7.50;1.00
11577;DHT22;5844;51.496;6.788;2023-12-20T14:31:55;7.50;1.00
11577;DHT22;5844;51.496;6.788;2023-12-20T14:34:20;7.50;1.00
11577;DHT22;5844;51.496;6.788;2023-12-20T14:36:46;7.60;1.00
11577;DHT22;5844;51.496;6.788;2023-12-20T14:39:12;7.70;1.00
11577;DHT22;5844;51.496;6.788;2023-12-20T14:41:39;7.60;1.00
11577;DHT22;5844;51.496;6.788;2023-12-20T14:44:05;7.60;1.00
11577;DHT22;5844;51.496;6.788;2023-12-20T14:46:32;7.50;1.00
11577;DHT22;5844;51.496;6.788;2023-12-20T14:48:57;7.60;1.00
11577;DHT22;5844;51.496;6.788;2023-12-20T14:51:23;7.60;1.00
11577;DHT22;5844;51.496;6.788;2023-12-20T14:53:50;7.60;1.00
11577;DHT22;5844;51.496;6.788;2023-12-20T14:56:15;7.70;1.00
11577;DHT22;5844;51.496;6.788;2023-12-20T14:58:41;7.70;1.00
11577;DHT22;5844;51.496;6.788;2023-12-20T15:01:07;7.70;1.00
11577;DHT22;5844;51.496;6.788;2023-12-20T15:03:34;7.70;1.00
11577;DHT22;5844;51.496;6.788;2023-12-20T15:06:00;7.80;1.00
11577;DHT22;5844;51.496;6.788;2023-12-20T15:08:26;7.70;1.00
11577;DHT22;5844;51.496;6.788;2023-12-20T15:10:51;7.80;1.00
11577;DHT22;5844;51.496;6.788;2023-12-20T15:13:17;7.70;1.00
11577;DHT22;5844;51.496;6.788;2023-12-20T15:15:43;7.70;1.00
11577;DHT22;5844;51.496;6.788;2023-12-20T15:18:09;7.80;1.00
11577;DHT22;5844;51.496;6.788;2023-12-20T15:20:35;7.80;1.00
11577;DHT22;5844;51.496;6.788;2023-12-20T15:23:02;7.90;1.00
11577;DHT22;5844;51.496;6.788;2023-12-20T15:25:32;7.90;1.00
11577;DHT22;5844;51.496;6.788;2023-12-20T15:27:58;7.80;1.00
11577;DHT22;5844;51.496;6.788;2023-12-20T15:30:24;7.90;1.00
11577;DHT22;5844;51.496;6.788;2023-12-20T15:32:50;7.90;1.00
11577;DHT22;5844;51.496;6.788;2023-12-20T15:35:16;7.90;1.00
11577;DHT22;5844;51.496;6.788;2023-12-20T15:37:42;7.90;1.00
11577;DHT22;5844;51.496;6.788;2023-12-20T15:40:08;7.90;1.00
11577;DHT22;5844;51.496;6.788;2023-12-20T15:42:40;7.90;1.00
11577;DHT22;5844;51.496;6.788;2023-12-20T15:45:07;7.90;1.00
11577;DHT22;5844;51.496;6.788;2023-12-20T15:47:34;7.90;1.00
11577;DHT22;5844;51.496;6.788;2023-12-20T15:50:01;8.00;1.00
11577;DHT22;5844;51.496;6.788;2023-12-20T15:52:27;8.00;1.00
11577;DHT22;5844;51.496;6.788;2023-12-20T15:54:53;8.10;1.00
11577;DHT22;5844;51.496;6.788;2023-12-20T15:57:19;8.00;1.00
11577;DHT22;5844;51.496;6.788;2023-12-20T15:59:44;8.10;1.00
11577;DHT22;5844;51.496;6.788;2023-12-20T16:02:10;8.10;1.00
11577;DHT22;5844;51.496;6.788;2023-12-20T16:04:37;8.20;1.00
11577;DHT22;5844;51.496;6.788;2023-12-20T16:07:02;8.10;1.00
11577;DHT22;5844;51.496;6.788;2023-12-20T16:09:28;8.10;1.00
11577;DHT22;5844;51.496;6.788;2023-12-20T16:11:54;8.10;1.00
11577;DHT22;5844;51.496;6.788;2023-12-20T16:14:19;8.10;1.00
11577;DHT22;5844;51.496;6.788;2023-12-20T16:16:47;8.20;1.00